עמוד ראשי
METAR-TAF:

METAR-TAF

שדות תעופה :

La Paz, מקסיקו

קו רוחב: 24-04N, קו אורך: 110-22W, גובה: 21מטר

תצפית מזג אוויר נוכחית

הדו"ח נערך לפני 6 שעות ו 24דקות, בשעה 05:40 UTC
רוח 7קשר מכיוון דרום
טמפרטורת 22 צלסיוס
לחות 73%
לחץ 1011 hPa
ראות: 16.1קילומטר
שמיים נקיים

METAR: MMLP 150540Z 19007KT 10SM SKC 22/17 A2985

זמן: 06:04 (12:04 UTC)

תחזית

הדו"ח נערך לפני 7 שעות ו 12דקות, בשעה 04:52 UTC
תחזית בתוקף מ 15 ב 06 UTC עד 16 ב 06 UTC
רוח 5קשר מכיוון דרום
ראות: 10קילומטר
שמיים נקיים
מ 15 ב 1600UTC
רוח 10קשר מכיוון צפון
ראות: 10קילומטר
שמיים נקיים
מ 16 ב 0300UTC
רוח 5קשר מכיוון דרום
ראות: 10קילומטר
שמיים נקיים

TAF: MMLP 150452Z 1506/1606 18005KT P6SM SKC FM151600 36010KT P6SM SKC FM160300 18005KT P6SM SKC

תצפיות ותחזיות מזג אוויר לגבי יותר מ- 4,000 שדות תעופה ברחבי העולם. דוחות METAR ו- TAF.

התחנות הזמינות מסומנות בנקודות צהובות ואדומות על גבי המפה.

העבר את העכבר לנקודה הצבעונית על מנת לראות את שם התחנה.

לאחר מכן, לחץ כדי לראות את תוכן ואת תחזיות מזג האוויר.

כדי לשנות את המפה: לחץ על הכפתורים הירוקים עם הפלוס השחור כדי להתקרב; על הכפתור הירוק עם המקף כדי להתרחק; או בחיצים הירוקים למפות סמוכות.


METAR-TAF: